sensor_id;sensor_type;location;lat;lon;timestamp;P1;durP1;ratioP1;P2;durP2;ratioP2
72813;SDS011;60945;48.516;-2.768;2023-02-11T00:00:11;17.02;;;15.23;;
72813;SDS011;60945;48.516;-2.768;2023-02-11T00:02:38;19.67;;;17.15;;
72813;SDS011;60945;48.516;-2.768;2023-02-11T00:05:04;22.08;;;16.13;;
72813;SDS011;60945;48.516;-2.768;2023-02-11T00:07:31;16.77;;;14.40;;
72813;SDS011;60945;48.516;-2.768;2023-02-11T00:09:57;17.85;;;15.27;;
72813;SDS011;60945;48.516;-2.768;2023-02-11T00:12:23;19.17;;;16.05;;
72813;SDS011;60945;48.516;-2.768;2023-02-11T00:14:49;20.25;;;16.52;;
72813;SDS011;60945;48.516;-2.768;2023-02-11T00:17:15;19.55;;;16.15;;
72813;SDS011;60945;48.516;-2.768;2023-02-11T00:19:41;17.38;;;15.63;;
72813;SDS011;60945;48.516;-2.768;2023-02-11T00:22:07;18.92;;;15.15;;
72813;SDS011;60945;48.516;-2.768;2023-02-11T00:24:33;18.77;;;16.02;;
72813;SDS011;60945;48.516;-2.768;2023-02-11T00:26:59;18.20;;;15.68;;
72813;SDS011;60945;48.516;-2.768;2023-02-11T00:29:25;18.50;;;15.43;;
72813;SDS011;60945;48.516;-2.768;2023-02-11T00:31:50;17.80;;;15.82;;
72813;SDS011;60945;48.516;-2.768;2023-02-11T00:34:16;16.27;;;14.65;;
72813;SDS011;60945;48.516;-2.768;2023-02-11T00:36:42;16.08;;;14.43;;
72813;SDS011;60945;48.516;-2.768;2023-02-11T00:39:07;15.77;;;14.10;;
72813;SDS011;60945;48.516;-2.768;2023-02-11T00:41:33;17.52;;;14.93;;
72813;SDS011;60945;48.516;-2.768;2023-02-11T00:43:59;18.65;;;14.95;;
72813;SDS011;60945;48.516;-2.768;2023-02-11T00:46:26;16.05;;;14.27;;
72813;SDS011;60945;48.516;-2.768;2023-02-11T00:48:52;16.77;;;14.90;;
72813;SDS011;60945;48.516;-2.768;2023-02-11T00:51:21;19.50;;;15.10;;
72813;SDS011;60945;48.516;-2.768;2023-02-11T00:53:53;18.85;;;15.82;;
72813;SDS011;60945;48.516;-2.768;2023-02-11T00:56:19;20.50;;;14.38;;
72813;SDS011;60945;48.516;-2.768;2023-02-11T00:58:45;17.60;;;15.18;;
72813;SDS011;60945;48.516;-2.768;2023-02-11T01:01:11;17.55;;;15.68;;
72813;SDS011;60945;48.516;-2.768;2023-02-11T01:03:37;16.15;;;14.48;;
72813;SDS011;60945;48.516;-2.768;2023-02-11T01:06:04;17.92;;;15.85;;
72813;SDS011;60945;48.516;-2.768;2023-02-11T01:08:31;17.42;;;14.75;;
72813;SDS011;60945;48.516;-2.768;2023-02-11T01:10:57;17.10;;;14.57;;
72813;SDS011;60945;48.516;-2.768;2023-02-11T01:13:28;15.93;;;13.68;;
72813;SDS011;60945;48.516;-2.768;2023-02-11T01:15:56;17.55;;;13.45;;
72813;SDS011;60945;48.516;-2.768;2023-02-11T01:18:22;14.68;;;13.02;;
72813;SDS011;60945;48.516;-2.768;2023-02-11T01:20:49;16.50;;;13.38;;
72813;SDS011;60945;48.516;-2.768;2023-02-11T01:23:16;17.65;;;13.88;;
72813;SDS011;60945;48.516;-2.768;2023-02-11T01:25:42;18.10;;;13.77;;
72813;SDS011;60945;48.516;-2.768;2023-02-11T01:28:12;16.05;;;13.25;;
72813;SDS011;60945;48.516;-2.768;2023-02-11T01:30:44;16.80;;;13.35;;
72813;SDS011;60945;48.516;-2.768;2023-02-11T01:33:09;16.50;;;14.07;;
72813;SDS011;60945;48.516;-2.768;2023-02-11T01:35:36;17.02;;;14.07;;
72813;SDS011;60945;48.516;-2.768;2023-02-11T01:38:05;14.52;;;12.45;;
72813;SDS011;60945;48.516;-2.768;2023-02-11T01:40:32;14.10;;;12.27;;
72813;SDS011;60945;48.516;-2.768;2023-02-11T01:42:58;16.23;;;12.77;;
72813;SDS011;60945;48.516;-2.768;2023-02-11T01:48:20;14.73;;;13.13;;
72813;SDS011;60945;48.516;-2.768;2023-02-11T01:50:51;16.23;;;13.38;;
72813;SDS011;60945;48.516;-2.768;2023-02-11T01:53:22;16.50;;;14.38;;
72813;SDS011;60945;48.516;-2.768;2023-02-11T01:56:07;16.55;;;13.85;;
72813;SDS011;60945;48.516;-2.768;2023-02-11T01:58:52;18.33;;;14.45;;
72813;SDS011;60945;48.516;-2.768;2023-02-11T02:01:23;16.73;;;14.02;;
72813;SDS011;60945;48.516;-2.768;2023-02-11T02:03:53;16.02;;;13.65;;
72813;SDS011;60945;48.516;-2.768;2023-02-11T02:06:24;15.07;;;13.40;;
72813;SDS011;60945;48.516;-2.768;2023-02-11T02:09:08;16.45;;;14.75;;
72813;SDS011;60945;48.516;-2.768;2023-02-11T02:11:41;16.23;;;14.60;;
72813;SDS011;60945;48.516;-2.768;2023-02-11T02:14:06;16.90;;;15.10;;
72813;SDS011;60945;48.516;-2.768;2023-02-11T02:16:33;20.77;;;16.50;;
72813;SDS011;60945;48.516;-2.768;2023-02-11T02:32:42;17.75;;;14.80;;
72813;SDS011;60945;48.516;-2.768;2023-02-11T02:35:34;17.52;;;15.75;;
72813;SDS011;60945;48.516;-2.768;2023-02-11T02:38:10;16.83;;;15.07;;
72813;SDS011;60945;48.516;-2.768;2023-02-11T02:40:49;17.83;;;15.93;;
72813;SDS011;60945;48.516;-2.768;2023-02-11T02:43:21;21.90;;;18.13;;
72813;SDS011;60945;48.516;-2.768;2023-02-11T02:45:49;17.08;;;15.32;;
72813;SDS011;60945;48.516;-2.768;2023-02-11T02:48:22;18.27;;;16.38;;
72813;SDS011;60945;48.516;-2.768;2023-02-11T02:56:20;17.65;;;15.77;;
72813;SDS011;60945;48.516;-2.768;2023-02-11T03:07:08;20.20;;;18.10;;
72813;SDS011;60945;48.516;-2.768;2023-02-11T03:09:48;19.27;;;16.13;;
72813;SDS011;60945;48.516;-2.768;2023-02-11T03:12:20;20.08;;;16.20;;
72813;SDS011;60945;48.516;-2.768;2023-02-11T03:14:48;18.92;;;16.67;;
72813;SDS011;60945;48.516;-2.768;2023-02-11T03:17:16;17.63;;;15.82;;
72813;SDS011;60945;48.516;-2.768;2023-02-11T03:19:43;19.05;;;15.88;;
72813;SDS011;60945;48.516;-2.768;2023-02-11T03:22:16;17.42;;;15.48;;
72813;SDS011;60945;48.516;-2.768;2023-02-11T03:24:46;21.02;;;16.00;;
72813;SDS011;60945;48.516;-2.768;2023-02-11T03:30:21;17.92;;;16.02;;
72813;SDS011;60945;48.516;-2.768;2023-02-11T03:32:54;16.70;;;15.00;;
72813;SDS011;60945;48.516;-2.768;2023-02-11T03:35:31;15.98;;;14.27;;
72813;SDS011;60945;48.516;-2.768;2023-02-11T03:38:13;17.67;;;14.18;;
72813;SDS011;60945;48.516;-2.768;2023-02-11T03:40:43;16.92;;;15.10;;
72813;SDS011;60945;48.516;-2.768;2023-02-11T03:43:17;15.55;;;13.63;;
72813;SDS011;60945;48.516;-2.768;2023-02-11T03:45:50;16.38;;;14.60;;
72813;SDS011;60945;48.516;-2.768;2023-02-11T03:48:39;16.90;;;13.82;;
72813;SDS011;60945;48.516;-2.768;2023-02-11T03:51:06;15.77;;;14.07;;
72813;SDS011;60945;48.516;-2.768;2023-02-11T03:53:33;17.33;;;13.65;;
72813;SDS011;60945;48.516;-2.768;2023-02-11T03:56:01;15.82;;;13.27;;
72813;SDS011;60945;48.516;-2.768;2023-02-11T03:58:30;17.75;;;13.68;;
72813;SDS011;60945;48.516;-2.768;2023-02-11T04:00:56;16.17;;;14.55;;
72813;SDS011;60945;48.516;-2.768;2023-02-11T04:03:21;15.32;;;13.75;;
72813;SDS011;60945;48.516;-2.768;2023-02-11T04:05:47;15.32;;;13.75;;
72813;SDS011;60945;48.516;-2.768;2023-02-11T04:08:13;14.68;;;12.90;;
72813;SDS011;60945;48.516;-2.768;2023-02-11T04:10:38;15.40;;;13.80;;
72813;SDS011;60945;48.516;-2.768;2023-02-11T04:13:04;16.23;;;14.52;;
72813;SDS011;60945;48.516;-2.768;2023-02-11T04:15:30;17.23;;;14.43;;
72813;SDS011;60945;48.516;-2.768;2023-02-11T04:17:55;16.13;;;14.55;;
72813;SDS011;60945;48.516;-2.768;2023-02-11T04:20:21;17.50;;;15.63;;
72813;SDS011;60945;48.516;-2.768;2023-02-11T04:22:47;18.02;;;15.38;;
72813;SDS011;60945;48.516;-2.768;2023-02-11T04:25:12;18.98;;;15.30;;
72813;SDS011;60945;48.516;-2.768;2023-02-11T04:27:38;16.83;;;15.00;;
72813;SDS011;60945;48.516;-2.768;2023-02-11T04:30:04;18.23;;;15.85;;
72813;SDS011;60945;48.516;-2.768;2023-02-11T04:32:31;17.52;;;14.93;;
72813;SDS011;60945;48.516;-2.768;2023-02-11T04:34:56;17.63;;;15.35;;
72813;SDS011;60945;48.516;-2.768;2023-02-11T04:37:22;19.05;;;15.40;;
72813;SDS011;60945;48.516;-2.768;2023-02-11T04:39:48;18.98;;;15.52;;
72813;SDS011;60945;48.516;-2.768;2023-02-11T04:42:13;18.08;;;15.13;;
72813;SDS011;60945;48.516;-2.768;2023-02-11T04:44:39;17.50;;;15.60;;
72813;SDS011;60945;48.516;-2.768;2023-02-11T04:47:04;17.42;;;15.48;;
72813;SDS011;60945;48.516;-2.768;2023-02-11T04:49:30;16.85;;;15.05;;
72813;SDS011;60945;48.516;-2.768;2023-02-11T04:51:56;17.20;;;15.35;;
72813;SDS011;60945;48.516;-2.768;2023-02-11T04:54:21;20.23;;;15.95;;
72813;SDS011;60945;48.516;-2.768;2023-02-11T04:56:47;17.55;;;14.88;;
72813;SDS011;60945;48.516;-2.768;2023-02-11T04:59:13;17.38;;;15.52;;
72813;SDS011;60945;48.516;-2.768;2023-02-11T05:01:39;17.95;;;15.88;;
72813;SDS011;60945;48.516;-2.768;2023-02-11T05:04:05;17.45;;;15.60;;
72813;SDS011;60945;48.516;-2.768;2023-02-11T05:06:30;18.15;;;16.23;;
72813;SDS011;60945;48.516;-2.768;2023-02-11T05:08:56;18.42;;;16.48;;
72813;SDS011;60945;48.516;-2.768;2023-02-11T05:11:22;18.40;;;16.27;;
72813;SDS011;60945;48.516;-2.768;2023-02-11T05:13:49;17.13;;;15.52;;
72813;SDS011;60945;48.516;-2.768;2023-02-11T05:16:15;18.17;;;16.23;;
72813;SDS011;60945;48.516;-2.768;2023-02-11T05:18:41;18.42;;;16.23;;
72813;SDS011;60945;48.516;-2.768;2023-02-11T05:21:12;18.00;;;15.80;;
72813;SDS011;60945;48.516;-2.768;2023-02-11T05:23:40;17.58;;;15.77;;
72813;SDS011;60945;48.516;-2.768;2023-02-11T05:26:07;19.05;;;17.15;;
72813;SDS011;60945;48.516;-2.768;2023-02-11T05:28:33;21.73;;;16.30;;
72813;SDS011;60945;48.516;-2.768;2023-02-11T05:30:59;18.83;;;16.92;;
72813;SDS011;60945;48.516;-2.768;2023-02-11T05:33:25;17.05;;;15.45;;
72813;SDS011;60945;48.516;-2.768;2023-02-11T05:35:56;18.95;;;17.08;;
72813;SDS011;60945;48.516;-2.768;2023-02-11T05:38:23;19.23;;;17.30;;
72813;SDS011;60945;48.516;-2.768;2023-02-11T05:40:49;18.77;;;16.92;;
72813;SDS011;60945;48.516;-2.768;2023-02-11T05:43:15;18.27;;;16.40;;
72813;SDS011;60945;48.516;-2.768;2023-02-11T05:45:40;18.17;;;16.50;;
72813;SDS011;60945;48.516;-2.768;2023-02-11T05:48:06;17.40;;;15.65;;
72813;SDS011;60945;48.516;-2.768;2023-02-11T05:50:32;17.98;;;16.15;;
72813;SDS011;60945;48.516;-2.768;2023-02-11T05:52:57;18.25;;;16.60;;
72813;SDS011;60945;48.516;-2.768;2023-02-11T05:55:23;18.15;;;16.35;;
72813;SDS011;60945;48.516;-2.768;2023-02-11T05:57:48;18.98;;;16.98;;
72813;SDS011;60945;48.516;-2.768;2023-02-11T06:00:14;17.92;;;16.08;;
72813;SDS011;60945;48.516;-2.768;2023-02-11T06:02:40;18.55;;;16.77;;
72813;SDS011;60945;48.516;-2.768;2023-02-11T06:05:06;18.58;;;16.67;;
72813;SDS011;60945;48.516;-2.768;2023-02-11T06:07:32;18.55;;;16.65;;
72813;SDS011;60945;48.516;-2.768;2023-02-11T06:09:58;18.63;;;16.92;;
72813;SDS011;60945;48.516;-2.768;2023-02-11T06:12:23;18.63;;;16.90;;
72813;SDS011;60945;48.516;-2.768;2023-02-11T06:14:49;18.48;;;16.27;;
72813;SDS011;60945;48.516;-2.768;2023-02-11T06:17:15;17.92;;;16.20;;
72813;SDS011;60945;48.516;-2.768;2023-02-11T06:19:40;18.55;;;16.73;;
72813;SDS011;60945;48.516;-2.768;2023-02-11T06:22:06;17.75;;;16.05;;
72813;SDS011;60945;48.516;-2.768;2023-02-11T06:24:32;17.80;;;16.02;;
72813;SDS011;60945;48.516;-2.768;2023-02-11T06:26:57;18.30;;;16.50;;
72813;SDS011;60945;48.516;-2.768;2023-02-11T06:29:23;18.17;;;16.38;;
72813;SDS011;60945;48.516;-2.768;2023-02-11T06:31:49;18.17;;;16.48;;
72813;SDS011;60945;48.516;-2.768;2023-02-11T06:34:14;17.73;;;16.13;;
72813;SDS011;60945;48.516;-2.768;2023-02-11T06:36:40;18.50;;;16.67;;
72813;SDS011;60945;48.516;-2.768;2023-02-11T06:39:06;18.75;;;16.92;;
72813;SDS011;60945;48.516;-2.768;2023-02-11T06:41:32;19.27;;;16.98;;
72813;SDS011;60945;48.516;-2.768;2023-02-11T06:43:58;19.80;;;17.80;;
72813;SDS011;60945;48.516;-2.768;2023-02-11T06:46:24;20.33;;;18.17;;
72813;SDS011;60945;48.516;-2.768;2023-02-11T06:48:50;21.40;;;17.80;;
72813;SDS011;60945;48.516;-2.768;2023-02-11T06:51:16;18.27;;;16.50;;
72813;SDS011;60945;48.516;-2.768;2023-02-11T06:53:42;19.13;;;17.13;;
72813;SDS011;60945;48.516;-2.768;2023-02-11T06:56:10;18.80;;;16.65;;
72813;SDS011;60945;48.516;-2.768;2023-02-11T06:58:44;19.58;;;17.65;;
72813;SDS011;60945;48.516;-2.768;2023-02-11T07:01:11;19.63;;;17.63;;
72813;SDS011;60945;48.516;-2.768;2023-02-11T07:03:39;19.20;;;17.20;;
72813;SDS011;60945;48.516;-2.768;2023-02-11T07:06:07;18.98;;;17.17;;
72813;SDS011;60945;48.516;-2.768;2023-02-11T07:08:36;18.80;;;16.58;;
72813;SDS011;60945;48.516;-2.768;2023-02-11T07:11:35;20.13;;;18.13;;
72813;SDS011;60945;48.516;-2.768;2023-02-11T07:13:56;19.38;;;17.38;;
72813;SDS011;60945;48.516;-2.768;2023-02-11T07:16:26;19.10;;;17.20;;
72813;SDS011;60945;48.516;-2.768;2023-02-11T07:18:51;18.63;;;16.70;;
72813;SDS011;60945;48.516;-2.768;2023-02-11T07:21:18;19.38;;;17.38;;
72813;SDS011;60945;48.516;-2.768;2023-02-11T07:23:46;18.52;;;16.83;;
72813;SDS011;60945;48.516;-2.768;2023-02-11T07:26:17;19.33;;;17.52;;
72813;SDS011;60945;48.516;-2.768;2023-02-11T07:28:45;18.70;;;16.60;;
72813;SDS011;60945;48.516;-2.768;2023-02-11T07:31:13;19.60;;;17.70;;
72813;SDS011;60945;48.516;-2.768;2023-02-11T07:33:40;18.70;;;16.80;;
72813;SDS011;60945;48.516;-2.768;2023-02-11T07:36:07;19.15;;;17.35;;
72813;SDS011;60945;48.516;-2.768;2023-02-11T07:38:34;19.58;;;17.35;;
72813;SDS011;60945;48.516;-2.768;2023-02-11T07:41:04;18.45;;;16.52;;
72813;SDS011;60945;48.516;-2.768;2023-02-11T07:43:32;18.95;;;16.95;;
72813;SDS011;60945;48.516;-2.768;2023-02-11T07:45:58;19.00;;;17.20;;
72813;SDS011;60945;48.516;-2.768;2023-02-11T07:48:26;19.95;;;17.95;;
72813;SDS011;60945;48.516;-2.768;2023-02-11T07:50:52;18.42;;;16.58;;
72813;SDS011;60945;48.516;-2.768;2023-02-11T07:53:18;19.23;;;17.33;;
72813;SDS011;60945;48.516;-2.768;2023-02-11T07:55:43;19.88;;;18.13;;
72813;SDS011;60945;48.516;-2.768;2023-02-11T07:58:09;19.58;;;17.63;;
72813;SDS011;60945;48.516;-2.768;2023-02-11T08:00:34;20.45;;;18.05;;
72813;SDS011;60945;48.516;-2.768;2023-02-11T08:03:00;20.17;;;18.25;;
72813;SDS011;60945;48.516;-2.768;2023-02-11T08:05:26;21.40;;;19.33;;
72813;SDS011;60945;48.516;-2.768;2023-02-11T08:07:52;21.45;;;19.23;;
72813;SDS011;60945;48.516;-2.768;2023-02-11T08:10:18;20.35;;;18.25;;
72813;SDS011;60945;48.516;-2.768;2023-02-11T08:12:44;18.80;;;16.90;;
72813;SDS011;60945;48.516;-2.768;2023-02-11T08:15:10;17.70;;;15.98;;
72813;SDS011;60945;48.516;-2.768;2023-02-11T08:17:36;19.48;;;17.65;;
72813;SDS011;60945;48.516;-2.768;2023-02-11T08:20:03;18.10;;;16.40;;
72813;SDS011;60945;48.516;-2.768;2023-02-11T08:22:32;17.77;;;15.98;;
72813;SDS011;60945;48.516;-2.768;2023-02-11T08:24:58;20.50;;;16.65;;
72813;SDS011;60945;48.516;-2.768;2023-02-11T08:27:24;18.50;;;16.77;;
72813;SDS011;60945;48.516;-2.768;2023-02-11T08:29:53;18.75;;;16.83;;
72813;SDS011;60945;48.516;-2.768;2023-02-11T08:32:19;20.35;;;18.17;;
72813;SDS011;60945;48.516;-2.768;2023-02-11T08:34:52;21.10;;;19.02;;
72813;SDS011;60945;48.516;-2.768;2023-02-11T08:37:18;20.40;;;18.33;;
72813;SDS011;60945;48.516;-2.768;2023-02-11T08:39:44;19.70;;;17.77;;
72813;SDS011;60945;48.516;-2.768;2023-02-11T08:42:11;20.73;;;18.58;;
72813;SDS011;60945;48.516;-2.768;2023-02-11T08:44:39;20.30;;;18.20;;
72813;SDS011;60945;48.516;-2.768;2023-02-11T08:47:05;19.95;;;18.02;;
72813;SDS011;60945;48.516;-2.768;2023-02-11T08:49:30;18.65;;;16.58;;
72813;SDS011;60945;48.516;-2.768;2023-02-11T08:51:58;18.60;;;16.63;;
72813;SDS011;60945;48.516;-2.768;2023-02-11T08:54:28;18.85;;;16.85;;
72813;SDS011;60945;48.516;-2.768;2023-02-11T08:56:56;17.52;;;15.82;;
72813;SDS011;60945;48.516;-2.768;2023-02-11T08:59:22;16.83;;;15.25;;
72813;SDS011;60945;48.516;-2.768;2023-02-11T09:01:48;17.77;;;15.88;;
72813;SDS011;60945;48.516;-2.768;2023-02-11T09:04:14;17.50;;;15.65;;
72813;SDS011;60945;48.516;-2.768;2023-02-11T09:06:41;19.80;;;17.77;;
72813;SDS011;60945;48.516;-2.768;2023-02-11T09:09:08;19.38;;;17.10;;
72813;SDS011;60945;48.516;-2.768;2023-02-11T09:11:36;17.75;;;15.85;;
72813;SDS011;60945;48.516;-2.768;2023-02-11T09:14:02;16.85;;;15.18;;
72813;SDS011;60945;48.516;-2.768;2023-02-11T09:16:29;19.02;;;17.13;;
72813;SDS011;60945;48.516;-2.768;2023-02-11T09:18:56;17.35;;;15.65;;
72813;SDS011;60945;48.516;-2.768;2023-02-11T09:21:27;15.50;;;13.85;;
72813;SDS011;60945;48.516;-2.768;2023-02-11T09:23:53;15.27;;;13.77;;
72813;SDS011;60945;48.516;-2.768;2023-02-11T09:28:49;14.23;;;12.82;;
72813;SDS011;60945;48.516;-2.768;2023-02-11T09:31:18;13.70;;;12.32;;
72813;SDS011;60945;48.516;-2.768;2023-02-11T09:33:46;14.10;;;12.70;;
72813;SDS011;60945;48.516;-2.768;2023-02-11T09:36:13;15.73;;;13.35;;
72813;SDS011;60945;48.516;-2.768;2023-02-11T09:38:44;13.90;;;12.57;;
72813;SDS011;60945;48.516;-2.768;2023-02-11T09:41:16;13.20;;;11.98;;
72813;SDS011;60945;48.516;-2.768;2023-02-11T09:44:15;12.82;;;11.73;;
72813;SDS011;60945;48.516;-2.768;2023-02-11T09:46:53;13.82;;;12.60;;
72813;SDS011;60945;48.516;-2.768;2023-02-11T09:49:50;14.10;;;12.80;;
72813;SDS011;60945;48.516;-2.768;2023-02-11T09:55:24;11.93;;;10.95;;
72813;SDS011;60945;48.516;-2.768;2023-02-11T09:57:51;11.02;;;10.13;;
72813;SDS011;60945;48.516;-2.768;2023-02-11T10:08:19;9.85;;;8.77;;
72813;SDS011;60945;48.516;-2.768;2023-02-11T10:20:03;12.20;;;11.00;;
72813;SDS011;60945;48.516;-2.768;2023-02-11T10:25:33;13.68;;;12.32;;
72813;SDS011;60945;48.516;-2.768;2023-02-11T10:28:01;12.32;;;11.27;;
72813;SDS011;60945;48.516;-2.768;2023-02-11T10:30:37;12.57;;;11.32;;
72813;SDS011;60945;48.516;-2.768;2023-02-11T10:35:41;12.13;;;11.13;;
72813;SDS011;60945;48.516;-2.768;2023-02-11T10:38:08;12.55;;;11.45;;
72813;SDS011;60945;48.516;-2.768;2023-02-11T10:40:35;12.18;;;11.07;;
72813;SDS011;60945;48.516;-2.768;2023-02-11T10:43:02;11.80;;;10.85;;
72813;SDS011;60945;48.516;-2.768;2023-02-11T10:45:35;11.73;;;10.65;;
72813;SDS011;60945;48.516;-2.768;2023-02-11T10:48:46;11.25;;;10.25;;
72813;SDS011;60945;48.516;-2.768;2023-02-11T10:51:22;11.82;;;10.82;;
72813;SDS011;60945;48.516;-2.768;2023-02-11T10:54:09;11.65;;;10.65;;
72813;SDS011;60945;48.516;-2.768;2023-02-11T10:56:44;12.63;;;11.52;;
72813;SDS011;60945;48.516;-2.768;2023-02-11T11:01:49;12.83;;;11.73;;
72813;SDS011;60945;48.516;-2.768;2023-02-11T11:04:26;12.20;;;11.13;;
72813;SDS011;60945;48.516;-2.768;2023-02-11T11:07:07;12.60;;;11.40;;
72813;SDS011;60945;48.516;-2.768;2023-02-11T11:09:54;12.65;;;11.48;;
72813;SDS011;60945;48.516;-2.768;2023-02-11T11:12:24;12.82;;;11.57;;
72813;SDS011;60945;48.516;-2.768;2023-02-11T11:17:34;13.32;;;12.02;;
72813;SDS011;60945;48.516;-2.768;2023-02-11T11:23:17;12.65;;;11.50;;
72813;SDS011;60945;48.516;-2.768;2023-02-11T11:28:34;12.75;;;11.65;;
72813;SDS011;60945;48.516;-2.768;2023-02-11T11:31:25;11.57;;;10.50;;
72813;SDS011;60945;48.516;-2.768;2023-02-11T11:34:17;10.98;;;9.88;;
72813;SDS011;60945;48.516;-2.768;2023-02-11T11:36:52;11.15;;;10.15;;
72813;SDS011;60945;48.516;-2.768;2023-02-11T11:39:22;11.52;;;10.50;;
72813;SDS011;60945;48.516;-2.768;2023-02-11T11:42:02;11.65;;;10.65;;
72813;SDS011;60945;48.516;-2.768;2023-02-11T11:44:33;11.25;;;10.23;;
72813;SDS011;60945;48.516;-2.768;2023-02-11T11:49:46;11.93;;;10.82;;
72813;SDS011;60945;48.516;-2.768;2023-02-11T11:55:10;12.77;;;11.48;;
72813;SDS011;60945;48.516;-2.768;2023-02-11T11:57:49;12.48;;;11.38;;
72813;SDS011;60945;48.516;-2.768;2023-02-11T12:00:19;13.73;;;12.48;;
72813;SDS011;60945;48.516;-2.768;2023-02-11T12:16:26;12.15;;;10.98;;
72813;SDS011;60945;48.516;-2.768;2023-02-11T12:54:23;12.57;;;11.38;;
72813;SDS011;60945;48.516;-2.768;2023-02-11T12:57:01;12.90;;;11.70;;
72813;SDS011;60945;48.516;-2.768;2023-02-11T13:02:28;11.85;;;10.70;;
72813;SDS011;60945;48.516;-2.768;2023-02-11T13:07:43;12.25;;;11.00;;
72813;SDS011;60945;48.516;-2.768;2023-02-11T13:12:58;11.30;;;10.40;;
72813;SDS011;60945;48.516;-2.768;2023-02-11T13:18:16;11.98;;;10.90;;
72813;SDS011;60945;48.516;-2.768;2023-02-11T13:20:50;11.65;;;10.48;;
72813;SDS011;60945;48.516;-2.768;2023-02-11T13:23:40;10.88;;;9.77;;
72813;SDS011;60945;48.516;-2.768;2023-02-11T13:26:26;10.85;;;9.85;;
72813;SDS011;60945;48.516;-2.768;2023-02-11T13:31:55;11.38;;;10.38;;
72813;SDS011;60945;48.516;-2.768;2023-02-11T13:37:05;10.40;;;9.50;;
72813;SDS011;60945;48.516;-2.768;2023-02-11T13:45:26;10.02;;;9.13;;
72813;SDS011;60945;48.516;-2.768;2023-02-11T13:47:56;10.65;;;9.68;;
72813;SDS011;60945;48.516;-2.768;2023-02-11T13:50:24;10.38;;;9.50;;
72813;SDS011;60945;48.516;-2.768;2023-02-11T13:53:00;10.10;;;9.10;;
72813;SDS011;60945;48.516;-2.768;2023-02-11T13:55:28;10.55;;;9.45;;
72813;SDS011;60945;48.516;-2.768;2023-02-11T14:19:31;8.18;;;7.47;;
72813;SDS011;60945;48.516;-2.768;2023-02-11T14:22:03;8.57;;;7.97;;
72813;SDS011;60945;48.516;-2.768;2023-02-11T14:24:47;7.95;;;7.45;;
72813;SDS011;60945;48.516;-2.768;2023-02-11T14:27:29;7.40;;;6.90;;
72813;SDS011;60945;48.516;-2.768;2023-02-11T14:38:25;7.60;;;7.10;;
72813;SDS011;60945;48.516;-2.768;2023-02-11T14:43:35;8.10;;;7.60;;
72813;SDS011;60945;48.516;-2.768;2023-02-11T14:46:04;8.43;;;7.83;;
72813;SDS011;60945;48.516;-2.768;2023-02-11T14:48:32;7.38;;;6.88;;
72813;SDS011;60945;48.516;-2.768;2023-02-11T14:51:01;7.25;;;6.75;;
72813;SDS011;60945;48.516;-2.768;2023-02-11T14:53:27;7.72;;;7.22;;
72813;SDS011;60945;48.516;-2.768;2023-02-11T14:55:55;7.32;;;6.88;;
72813;SDS011;60945;48.516;-2.768;2023-02-11T14:58:23;7.78;;;7.18;;
72813;SDS011;60945;48.516;-2.768;2023-02-11T15:01:01;6.93;;;6.53;;
72813;SDS011;60945;48.516;-2.768;2023-02-11T15:03:47;7.65;;;7.15;;
72813;SDS011;60945;48.516;-2.768;2023-02-11T15:06:15;7.03;;;6.53;;
72813;SDS011;60945;48.516;-2.768;2023-02-11T15:08:54;6.90;;;6.47;;
72813;SDS011;60945;48.516;-2.768;2023-02-11T15:11:25;7.25;;;6.75;;
72813;SDS011;60945;48.516;-2.768;2023-02-11T15:13:52;6.97;;;6.47;;
72813;SDS011;60945;48.516;-2.768;2023-02-11T15:16:23;6.72;;;6.32;;
72813;SDS011;60945;48.516;-2.768;2023-02-11T15:18:59;7.60;;;7.07;;
72813;SDS011;60945;48.516;-2.768;2023-02-11T15:21:28;8.00;;;7.40;;
72813;SDS011;60945;48.516;-2.768;2023-02-11T15:24:01;9.60;;;8.90;;
72813;SDS011;60945;48.516;-2.768;2023-02-11T15:26:30;9.70;;;8.95;;
72813;SDS011;60945;48.516;-2.768;2023-02-11T15:28:56;10.82;;;10.02;;
72813;SDS011;60945;48.516;-2.768;2023-02-11T15:31:23;10.68;;;9.77;;
72813;SDS011;60945;48.516;-2.768;2023-02-11T15:33:50;11.18;;;10.00;;
72813;SDS011;60945;48.516;-2.768;2023-02-11T15:36:18;11.32;;;10.32;;
72813;SDS011;60945;48.516;-2.768;2023-02-11T15:39:14;12.50;;;11.50;;
72813;SDS011;60945;48.516;-2.768;2023-02-11T15:41:52;12.90;;;11.80;;
72813;SDS011;60945;48.516;-2.768;2023-02-11T15:44:25;11.85;;;10.80;;
72813;SDS011;60945;48.516;-2.768;2023-02-11T15:46:55;12.48;;;11.27;;
72813;SDS011;60945;48.516;-2.768;2023-02-11T15:49:22;13.00;;;11.90;;
72813;SDS011;60945;48.516;-2.768;2023-02-11T15:51:49;12.80;;;11.55;;
72813;SDS011;60945;48.516;-2.768;2023-02-11T15:54:18;12.13;;;11.00;;
72813;SDS011;60945;48.516;-2.768;2023-02-11T15:56:48;12.52;;;11.40;;
72813;SDS011;60945;48.516;-2.768;2023-02-11T15:59:21;12.80;;;11.50;;
72813;SDS011;60945;48.516;-2.768;2023-02-11T16:01:52;13.25;;;11.75;;
72813;SDS011;60945;48.516;-2.768;2023-02-11T16:04:25;13.02;;;11.80;;
72813;SDS011;60945;48.516;-2.768;2023-02-11T16:06:53;13.55;;;12.15;;
72813;SDS011;60945;48.516;-2.768;2023-02-11T16:09:24;13.32;;;12.02;;
72813;SDS011;60945;48.516;-2.768;2023-02-11T16:11:54;12.48;;;11.27;;
72813;SDS011;60945;48.516;-2.768;2023-02-11T16:17:39;12.07;;;10.90;;
72813;SDS011;60945;48.516;-2.768;2023-02-11T16:19:43;12.10;;;10.90;;
72813;SDS011;60945;48.516;-2.768;2023-02-11T16:22:14;11.13;;;9.93;;
72813;SDS011;60945;48.516;-2.768;2023-02-11T16:24:44;13.07;;;10.80;;
72813;SDS011;60945;48.516;-2.768;2023-02-11T16:27:27;12.13;;;10.30;;
72813;SDS011;60945;48.516;-2.768;2023-02-11T16:29:59;11.48;;;10.48;;
72813;SDS011;60945;48.516;-2.768;2023-02-11T16:32:26;12.57;;;10.98;;
72813;SDS011;60945;48.516;-2.768;2023-02-11T16:34:53;12.70;;;10.48;;
72813;SDS011;60945;48.516;-2.768;2023-02-11T16:37:21;12.70;;;11.32;;
72813;SDS011;60945;48.516;-2.768;2023-02-11T16:39:48;12.55;;;11.35;;
72813;SDS011;60945;48.516;-2.768;2023-02-11T16:42:13;11.73;;;10.63;;
72813;SDS011;60945;48.516;-2.768;2023-02-11T16:44:39;12.43;;;11.18;;
72813;SDS011;60945;48.516;-2.768;2023-02-11T16:47:06;11.98;;;10.77;;
72813;SDS011;60945;48.516;-2.768;2023-02-11T16:49:40;12.85;;;11.48;;
72813;SDS011;60945;48.516;-2.768;2023-02-11T16:52:07;11.98;;;10.77;;
72813;SDS011;60945;48.516;-2.768;2023-02-11T16:54:37;13.18;;;11.73;;
72813;SDS011;60945;48.516;-2.768;2023-02-11T16:57:11;14.32;;;11.07;;
72813;SDS011;60945;48.516;-2.768;2023-02-11T16:59:45;11.88;;;10.65;;
72813;SDS011;60945;48.516;-2.768;2023-02-11T17:02:13;12.02;;;10.82;;
72813;SDS011;60945;48.516;-2.768;2023-02-11T17:04:41;12.57;;;11.25;;
72813;SDS011;60945;48.516;-2.768;2023-02-11T17:07:07;12.70;;;11.38;;
72813;SDS011;60945;48.516;-2.768;2023-02-11T17:09:33;12.55;;;11.30;;
72813;SDS011;60945;48.516;-2.768;2023-02-11T17:11:59;11.75;;;10.65;;
72813;SDS011;60945;48.516;-2.768;2023-02-11T17:14:25;13.77;;;12.38;;
72813;SDS011;60945;48.516;-2.768;2023-02-11T17:16:51;13.57;;;12.15;;
72813;SDS011;60945;48.516;-2.768;2023-02-11T17:19:17;13.95;;;12.40;;
72813;SDS011;60945;48.516;-2.768;2023-02-11T17:21:45;12.70;;;11.38;;
72813;SDS011;60945;48.516;-2.768;2023-02-11T17:24:12;12.00;;;10.70;;
72813;SDS011;60945;48.516;-2.768;2023-02-11T17:26:39;12.25;;;11.05;;
72813;SDS011;60945;48.516;-2.768;2023-02-11T17:29:09;12.27;;;11.07;;